sensor_id;sensor_type;location;lat;lon;timestamp;temperature;humidity
15596;DHT22;7898;48.658;9.068;2024-02-15T00:01:25;10.10;99.90
15596;DHT22;7898;48.658;9.068;2024-02-15T00:03:54;10.20;99.90
15596;DHT22;7898;48.658;9.068;2024-02-15T00:06:20;10.10;99.90
15596;DHT22;7898;48.658;9.068;2024-02-15T00:08:48;10.10;99.90
15596;DHT22;7898;48.658;9.068;2024-02-15T00:11:15;10.10;99.90
15596;DHT22;7898;48.658;9.068;2024-02-15T00:13:42;10.10;99.90
15596;DHT22;7898;48.658;9.068;2024-02-15T00:16:13;10.00;99.90
15596;DHT22;7898;48.658;9.068;2024-02-15T00:18:40;10.00;99.90
15596;DHT22;7898;48.658;9.068;2024-02-15T00:21:08;10.00;99.90
15596;DHT22;7898;48.658;9.068;2024-02-15T00:23:36;10.00;99.90
15596;DHT22;7898;48.658;9.068;2024-02-15T00:26:03;10.00;99.90
15596;DHT22;7898;48.658;9.068;2024-02-15T00:28:30;9.90;99.90
15596;DHT22;7898;48.658;9.068;2024-02-15T00:31:00;9.90;99.90
15596;DHT22;7898;48.658;9.068;2024-02-15T00:33:26;10.00;99.90
15596;DHT22;7898;48.658;9.068;2024-02-15T00:35:53;10.00;99.90
15596;DHT22;7898;48.658;9.068;2024-02-15T00:38:22;10.00;99.90
15596;DHT22;7898;48.658;9.068;2024-02-15T00:40:49;10.00;99.90
15596;DHT22;7898;48.658;9.068;2024-02-15T00:43:16;9.90;99.90
15596;DHT22;7898;48.658;9.068;2024-02-15T00:45:42;9.80;99.90
15596;DHT22;7898;48.658;9.068;2024-02-15T00:48:09;9.80;99.90
15596;DHT22;7898;48.658;9.068;2024-02-15T00:50:36;9.80;99.90
15596;DHT22;7898;48.658;9.068;2024-02-15T00:53:03;9.80;99.90
15596;DHT22;7898;48.658;9.068;2024-02-15T00:55:32;9.80;99.90
15596;DHT22;7898;48.658;9.068;2024-02-15T00:57:59;9.80;99.90
15596;DHT22;7898;48.658;9.068;2024-02-15T01:00:26;9.80;99.90
15596;DHT22;7898;48.658;9.068;2024-02-15T01:02:52;9.80;99.90
15596;DHT22;7898;48.658;9.068;2024-02-15T01:05:19;9.80;99.90
15596;DHT22;7898;48.658;9.068;2024-02-15T01:07:47;9.70;99.90
15596;DHT22;7898;48.658;9.068;2024-02-15T01:10:15;9.80;99.90
15596;DHT22;7898;48.658;9.068;2024-02-15T01:12:44;9.70;99.90
15596;DHT22;7898;48.658;9.068;2024-02-15T01:15:11;9.60;99.90
15596;DHT22;7898;48.658;9.068;2024-02-15T01:17:37;9.60;99.90
15596;DHT22;7898;48.658;9.068;2024-02-15T01:20:05;9.60;99.90
15596;DHT22;7898;48.658;9.068;2024-02-15T01:22:33;9.50;99.90
15596;DHT22;7898;48.658;9.068;2024-02-15T01:25:00;9.50;99.90
15596;DHT22;7898;48.658;9.068;2024-02-15T01:27:27;9.50;99.90
15596;DHT22;7898;48.658;9.068;2024-02-15T01:29:57;9.40;99.90
15596;DHT22;7898;48.658;9.068;2024-02-15T01:32:24;9.40;99.90
15596;DHT22;7898;48.658;9.068;2024-02-15T01:34:51;9.40;99.90
15596;DHT22;7898;48.658;9.068;2024-02-15T01:37:20;9.30;99.90
15596;DHT22;7898;48.658;9.068;2024-02-15T01:39:47;9.30;99.90
15596;DHT22;7898;48.658;9.068;2024-02-15T01:42:13;9.30;99.90
15596;DHT22;7898;48.658;9.068;2024-02-15T01:44:41;9.20;99.90
15596;DHT22;7898;48.658;9.068;2024-02-15T01:47:11;9.10;99.90
15596;DHT22;7898;48.658;9.068;2024-02-15T01:49:38;9.00;99.90
15596;DHT22;7898;48.658;9.068;2024-02-15T01:52:07;8.90;99.90
15596;DHT22;7898;48.658;9.068;2024-02-15T01:54:36;8.80;99.90
15596;DHT22;7898;48.658;9.068;2024-02-15T01:57:04;8.80;99.90
15596;DHT22;7898;48.658;9.068;2024-02-15T01:59:32;8.70;99.90
15596;DHT22;7898;48.658;9.068;2024-02-15T02:01:59;8.60;99.90
15596;DHT22;7898;48.658;9.068;2024-02-15T02:04:27;8.50;99.90
15596;DHT22;7898;48.658;9.068;2024-02-15T02:06:54;8.40;99.90
15596;DHT22;7898;48.658;9.068;2024-02-15T02:09:24;8.40;99.90
15596;DHT22;7898;48.658;9.068;2024-02-15T02:11:51;8.30;99.90
15596;DHT22;7898;48.658;9.068;2024-02-15T02:14:18;8.30;99.90
15596;DHT22;7898;48.658;9.068;2024-02-15T02:16:46;8.20;99.90
15596;DHT22;7898;48.658;9.068;2024-02-15T02:19:13;8.10;99.90
15596;DHT22;7898;48.658;9.068;2024-02-15T02:21:41;8.10;99.90
15596;DHT22;7898;48.658;9.068;2024-02-15T02:24:13;8.10;99.90
15596;DHT22;7898;48.658;9.068;2024-02-15T02:26:41;8.00;99.90
15596;DHT22;7898;48.658;9.068;2024-02-15T02:29:08;8.00;99.90
15596;DHT22;7898;48.658;9.068;2024-02-15T02:31:36;7.90;99.90
15596;DHT22;7898;48.658;9.068;2024-02-15T02:34:03;8.00;99.90
15596;DHT22;7898;48.658;9.068;2024-02-15T02:36:32;8.10;99.90
15596;DHT22;7898;48.658;9.068;2024-02-15T02:38:58;8.00;99.90
15596;DHT22;7898;48.658;9.068;2024-02-15T02:41:26;7.90;99.90
15596;DHT22;7898;48.658;9.068;2024-02-15T02:43:55;7.70;99.90
15596;DHT22;7898;48.658;9.068;2024-02-15T02:46:22;7.60;99.90
15596;DHT22;7898;48.658;9.068;2024-02-15T02:48:49;7.50;99.90
15596;DHT22;7898;48.658;9.068;2024-02-15T02:51:16;7.40;99.90
15596;DHT22;7898;48.658;9.068;2024-02-15T02:53:43;7.40;99.90
15596;DHT22;7898;48.658;9.068;2024-02-15T02:56:10;7.30;99.90
15596;DHT22;7898;48.658;9.068;2024-02-15T02:58:38;7.20;99.90
15596;DHT22;7898;48.658;9.068;2024-02-15T03:01:09;7.20;99.90
15596;DHT22;7898;48.658;9.068;2024-02-15T03:03:36;7.10;99.90
15596;DHT22;7898;48.658;9.068;2024-02-15T03:06:04;7.00;99.90
15596;DHT22;7898;48.658;9.068;2024-02-15T03:08:31;6.90;99.90
15596;DHT22;7898;48.658;9.068;2024-02-15T03:10:59;6.90;99.90
15596;DHT22;7898;48.658;9.068;2024-02-15T03:13:26;6.90;99.90
15596;DHT22;7898;48.658;9.068;2024-02-15T03:15:53;6.80;99.90
15596;DHT22;7898;48.658;9.068;2024-02-15T03:18:21;6.70;99.90
15596;DHT22;7898;48.658;9.068;2024-02-15T03:20:49;6.70;99.90
15596;DHT22;7898;48.658;9.068;2024-02-15T03:23:16;6.60;99.90
15596;DHT22;7898;48.658;9.068;2024-02-15T03:25:43;6.60;99.90
15596;DHT22;7898;48.658;9.068;2024-02-15T03:28:10;6.70;99.90
15596;DHT22;7898;48.658;9.068;2024-02-15T03:30:37;6.60;99.90
15596;DHT22;7898;48.658;9.068;2024-02-15T03:33:04;6.60;99.90
15596;DHT22;7898;48.658;9.068;2024-02-15T03:35:33;6.50;99.90
15596;DHT22;7898;48.658;9.068;2024-02-15T03:38:00;6.50;99.90
15596;DHT22;7898;48.658;9.068;2024-02-15T03:40:27;6.50;99.90
15596;DHT22;7898;48.658;9.068;2024-02-15T03:42:56;6.40;99.90
15596;DHT22;7898;48.658;9.068;2024-02-15T03:45:23;6.40;99.90
15596;DHT22;7898;48.658;9.068;2024-02-15T03:47:51;6.40;99.90
15596;DHT22;7898;48.658;9.068;2024-02-15T03:50:18;6.30;99.90
15596;DHT22;7898;48.658;9.068;2024-02-15T03:52:48;6.30;99.90
15596;DHT22;7898;48.658;9.068;2024-02-15T03:55:15;6.30;99.90
15596;DHT22;7898;48.658;9.068;2024-02-15T03:57:42;6.30;99.90
15596;DHT22;7898;48.658;9.068;2024-02-15T04:00:12;6.40;99.90
15596;DHT22;7898;48.658;9.068;2024-02-15T04:02:40;6.30;99.90
15596;DHT22;7898;48.658;9.068;2024-02-15T04:05:07;6.30;99.90
15596;DHT22;7898;48.658;9.068;2024-02-15T04:07:34;6.30;99.90
15596;DHT22;7898;48.658;9.068;2024-02-15T04:10:04;6.30;99.90
15596;DHT22;7898;48.658;9.068;2024-02-15T04:12:32;6.30;99.90
15596;DHT22;7898;48.658;9.068;2024-02-15T04:14:59;6.40;99.90
15596;DHT22;7898;48.658;9.068;2024-02-15T04:17:31;6.40;99.90
15596;DHT22;7898;48.658;9.068;2024-02-15T04:19:58;6.40;99.90
15596;DHT22;7898;48.658;9.068;2024-02-15T04:22:25;6.50;99.90
15596;DHT22;7898;48.658;9.068;2024-02-15T04:24:52;6.50;99.90
15596;DHT22;7898;48.658;9.068;2024-02-15T04:27:21;6.60;99.90
15596;DHT22;7898;48.658;9.068;2024-02-15T04:29:48;6.60;99.90
15596;DHT22;7898;48.658;9.068;2024-02-15T04:32:15;6.50;99.90
15596;DHT22;7898;48.658;9.068;2024-02-15T04:34:45;6.50;99.90
15596;DHT22;7898;48.658;9.068;2024-02-15T04:37:12;6.50;99.90
15596;DHT22;7898;48.658;9.068;2024-02-15T04:39:40;6.60;99.90
15596;DHT22;7898;48.658;9.068;2024-02-15T04:42:06;6.60;99.90
15596;DHT22;7898;48.658;9.068;2024-02-15T04:44:38;6.70;99.90
15596;DHT22;7898;48.658;9.068;2024-02-15T04:47:05;6.70;99.90
15596;DHT22;7898;48.658;9.068;2024-02-15T04:49:32;6.80;99.90
15596;DHT22;7898;48.658;9.068;2024-02-15T04:51:59;6.80;99.90
15596;DHT22;7898;48.658;9.068;2024-02-15T04:54:27;6.80;99.90
15596;DHT22;7898;48.658;9.068;2024-02-15T04:56:55;6.70;99.90
15596;DHT22;7898;48.658;9.068;2024-02-15T04:59:22;6.80;99.90
15596;DHT22;7898;48.658;9.068;2024-02-15T05:01:53;6.70;99.90
15596;DHT22;7898;48.658;9.068;2024-02-15T05:04:20;6.60;99.90
15596;DHT22;7898;48.658;9.068;2024-02-15T05:06:47;6.60;99.90
15596;DHT22;7898;48.658;9.068;2024-02-15T05:09:13;6.60;99.90
15596;DHT22;7898;48.658;9.068;2024-02-15T05:11:44;6.50;99.90
15596;DHT22;7898;48.658;9.068;2024-02-15T05:14:12;6.50;99.90
15596;DHT22;7898;48.658;9.068;2024-02-15T05:16:44;6.50;99.90
15596;DHT22;7898;48.658;9.068;2024-02-15T05:19:14;6.50;99.90
15596;DHT22;7898;48.658;9.068;2024-02-15T05:21:41;6.50;99.90
15596;DHT22;7898;48.658;9.068;2024-02-15T05:24:10;6.50;99.90
15596;DHT22;7898;48.658;9.068;2024-02-15T05:26:39;6.50;99.90
15596;DHT22;7898;48.658;9.068;2024-02-15T05:29:08;6.40;99.90
15596;DHT22;7898;48.658;9.068;2024-02-15T05:31:35;6.40;99.90
15596;DHT22;7898;48.658;9.068;2024-02-15T05:34:05;6.40;99.90
15596;DHT22;7898;48.658;9.068;2024-02-15T05:36:34;6.30;99.90
15596;DHT22;7898;48.658;9.068;2024-02-15T05:39:01;6.40;99.90
15596;DHT22;7898;48.658;9.068;2024-02-15T05:41:29;6.40;99.90
15596;DHT22;7898;48.658;9.068;2024-02-15T05:43:58;6.40;99.90
15596;DHT22;7898;48.658;9.068;2024-02-15T05:46:25;6.40;99.90
15596;DHT22;7898;48.658;9.068;2024-02-15T05:48:53;6.40;99.90
15596;DHT22;7898;48.658;9.068;2024-02-15T05:51:21;6.40;99.90
15596;DHT22;7898;48.658;9.068;2024-02-15T05:53:49;6.40;99.90
15596;DHT22;7898;48.658;9.068;2024-02-15T05:56:19;6.40;99.90
15596;DHT22;7898;48.658;9.068;2024-02-15T05:58:46;6.40;99.90
15596;DHT22;7898;48.658;9.068;2024-02-15T06:01:13;6.40;99.90
15596;DHT22;7898;48.658;9.068;2024-02-15T06:03:40;6.40;99.90
15596;DHT22;7898;48.658;9.068;2024-02-15T06:06:09;6.50;99.90
15596;DHT22;7898;48.658;9.068;2024-02-15T06:08:37;6.50;99.90
15596;DHT22;7898;48.658;9.068;2024-02-15T06:11:05;6.50;99.90
15596;DHT22;7898;48.658;9.068;2024-02-15T06:13:33;6.50;99.90
15596;DHT22;7898;48.658;9.068;2024-02-15T06:16:00;6.50;99.90
15596;DHT22;7898;48.658;9.068;2024-02-15T06:18:28;6.50;99.90
15596;DHT22;7898;48.658;9.068;2024-02-15T06:20:57;6.40;99.90
15596;DHT22;7898;48.658;9.068;2024-02-15T06:23:25;6.40;99.90
15596;DHT22;7898;48.658;9.068;2024-02-15T06:25:54;6.40;99.90
15596;DHT22;7898;48.658;9.068;2024-02-15T06:28:23;6.40;99.90
15596;DHT22;7898;48.658;9.068;2024-02-15T06:31:04;6.40;99.90
15596;DHT22;7898;48.658;9.068;2024-02-15T06:33:48;6.30;99.90
15596;DHT22;7898;48.658;9.068;2024-02-15T06:36:32;6.30;99.90
15596;DHT22;7898;48.658;9.068;2024-02-15T06:39:16;6.20;99.90
15596;DHT22;7898;48.658;9.068;2024-02-15T06:42:01;6.30;99.90
15596;DHT22;7898;48.658;9.068;2024-02-15T06:44:29;6.30;99.90
15596;DHT22;7898;48.658;9.068;2024-02-15T06:46:56;6.60;99.90
15596;DHT22;7898;48.658;9.068;2024-02-15T06:49:23;6.20;99.90
15596;DHT22;7898;48.658;9.068;2024-02-15T06:51:51;6.30;99.90
15596;DHT22;7898;48.658;9.068;2024-02-15T06:54:18;6.40;99.90
15596;DHT22;7898;48.658;9.068;2024-02-15T06:56:45;6.40;99.90
15596;DHT22;7898;48.658;9.068;2024-02-15T06:59:12;6.60;99.90
15596;DHT22;7898;48.658;9.068;2024-02-15T07:01:42;6.70;99.90
15596;DHT22;7898;48.658;9.068;2024-02-15T07:04:09;6.90;99.90
15596;DHT22;7898;48.658;9.068;2024-02-15T07:06:37;7.00;99.90
15596;DHT22;7898;48.658;9.068;2024-02-15T07:09:04;7.30;99.90
15596;DHT22;7898;48.658;9.068;2024-02-15T07:11:32;7.50;99.90
15596;DHT22;7898;48.658;9.068;2024-02-15T07:14:00;7.90;99.90
15596;DHT22;7898;48.658;9.068;2024-02-15T07:16:27;8.60;99.90
15596;DHT22;7898;48.658;9.068;2024-02-15T07:18:56;9.40;99.90
15596;DHT22;7898;48.658;9.068;2024-02-15T07:21:23;10.30;99.90
15596;DHT22;7898;48.658;9.068;2024-02-15T07:23:53;11.10;99.90
15596;DHT22;7898;48.658;9.068;2024-02-15T07:26:20;11.80;99.90
15596;DHT22;7898;48.658;9.068;2024-02-15T07:28:50;12.20;99.90
15596;DHT22;7898;48.658;9.068;2024-02-15T07:31:18;12.50;99.90
15596;DHT22;7898;48.658;9.068;2024-02-15T07:33:47;13.00;99.90
15596;DHT22;7898;48.658;9.068;2024-02-15T07:36:18;13.40;99.90
15596;DHT22;7898;48.658;9.068;2024-02-15T07:38:47;13.60;99.90
15596;DHT22;7898;48.658;9.068;2024-02-15T07:41:14;14.20;99.90
15596;DHT22;7898;48.658;9.068;2024-02-15T07:43:41;14.90;99.90
15596;DHT22;7898;48.658;9.068;2024-02-15T07:46:12;15.40;99.90
15596;DHT22;7898;48.658;9.068;2024-02-15T07:48:40;15.70;99.90
15596;DHT22;7898;48.658;9.068;2024-02-15T07:51:11;15.60;99.90
15596;DHT22;7898;48.658;9.068;2024-02-15T07:53:39;15.90;99.90
15596;DHT22;7898;48.658;9.068;2024-02-15T07:56:06;16.20;99.90
15596;DHT22;7898;48.658;9.068;2024-02-15T07:58:33;16.40;99.90
15596;DHT22;7898;48.658;9.068;2024-02-15T08:01:00;16.40;99.90
15596;DHT22;7898;48.658;9.068;2024-02-15T08:03:29;16.40;99.90
15596;DHT22;7898;48.658;9.068;2024-02-15T08:05:56;16.20;99.90
15596;DHT22;7898;48.658;9.068;2024-02-15T08:08:23;16.20;99.90
15596;DHT22;7898;48.658;9.068;2024-02-15T08:10:51;15.80;99.90
15596;DHT22;7898;48.658;9.068;2024-02-15T08:13:18;15.40;99.90
15596;DHT22;7898;48.658;9.068;2024-02-15T08:15:48;15.20;99.90
15596;DHT22;7898;48.658;9.068;2024-02-15T08:18:18;15.00;99.90
15596;DHT22;7898;48.658;9.068;2024-02-15T08:20:45;15.10;99.90
15596;DHT22;7898;48.658;9.068;2024-02-15T08:23:12;15.10;99.90
15596;DHT22;7898;48.658;9.068;2024-02-15T08:25:39;15.10;99.90
15596;DHT22;7898;48.658;9.068;2024-02-15T08:28:08;15.30;99.90
15596;DHT22;7898;48.658;9.068;2024-02-15T08:30:36;15.50;99.90
15596;DHT22;7898;48.658;9.068;2024-02-15T08:33:04;15.30;99.90
15596;DHT22;7898;48.658;9.068;2024-02-15T08:35:30;15.00;99.90
15596;DHT22;7898;48.658;9.068;2024-02-15T08:37:58;14.60;99.90
15596;DHT22;7898;48.658;9.068;2024-02-15T08:40:25;14.20;99.90
15596;DHT22;7898;48.658;9.068;2024-02-15T08:42:53;14.00;99.90
15596;DHT22;7898;48.658;9.068;2024-02-15T08:45:22;13.90;99.90
15596;DHT22;7898;48.658;9.068;2024-02-15T08:47:50;13.80;99.90
15596;DHT22;7898;48.658;9.068;2024-02-15T08:50:18;14.00;99.90
15596;DHT22;7898;48.658;9.068;2024-02-15T08:52:48;13.90;99.90
15596;DHT22;7898;48.658;9.068;2024-02-15T08:55:16;13.90;99.90
15596;DHT22;7898;48.658;9.068;2024-02-15T08:57:43;13.90;99.90
15596;DHT22;7898;48.658;9.068;2024-02-15T09:00:11;14.50;99.90
15596;DHT22;7898;48.658;9.068;2024-02-15T09:02:43;14.20;99.90
15596;DHT22;7898;48.658;9.068;2024-02-15T09:05:10;14.30;99.90
15596;DHT22;7898;48.658;9.068;2024-02-15T09:07:40;14.50;99.90
15596;DHT22;7898;48.658;9.068;2024-02-15T09:10:08;14.70;99.90
15596;DHT22;7898;48.658;9.068;2024-02-15T09:12:36;15.30;99.90
15596;DHT22;7898;48.658;9.068;2024-02-15T09:15:06;15.90;99.90
15596;DHT22;7898;48.658;9.068;2024-02-15T09:17:33;16.50;99.90
15596;DHT22;7898;48.658;9.068;2024-02-15T09:20:07;17.10;99.90
15596;DHT22;7898;48.658;9.068;2024-02-15T09:22:34;17.70;99.90
15596;DHT22;7898;48.658;9.068;2024-02-15T09:25:02;18.40;99.90
15596;DHT22;7898;48.658;9.068;2024-02-15T09:27:28;19.10;99.90
15596;DHT22;7898;48.658;9.068;2024-02-15T09:29:55;19.50;99.90
15596;DHT22;7898;48.658;9.068;2024-02-15T09:32:22;19.90;99.90
15596;DHT22;7898;48.658;9.068;2024-02-15T09:34:49;19.90;99.90
15596;DHT22;7898;48.658;9.068;2024-02-15T09:37:17;20.10;99.90
15596;DHT22;7898;48.658;9.068;2024-02-15T09:39:44;19.90;99.90
15596;DHT22;7898;48.658;9.068;2024-02-15T09:42:11;19.80;99.90
15596;DHT22;7898;48.658;9.068;2024-02-15T09:44:38;19.60;99.90
15596;DHT22;7898;48.658;9.068;2024-02-15T09:47:10;19.60;99.90
15596;DHT22;7898;48.658;9.068;2024-02-15T09:49:40;19.40;99.90
15596;DHT22;7898;48.658;9.068;2024-02-15T09:52:08;19.30;99.90
15596;DHT22;7898;48.658;9.068;2024-02-15T09:54:40;19.60;99.90
15596;DHT22;7898;48.658;9.068;2024-02-15T09:57:09;19.90;99.90
15596;DHT22;7898;48.658;9.068;2024-02-15T09:59:37;20.10;99.90
15596;DHT22;7898;48.658;9.068;2024-02-15T10:02:05;20.20;99.90
15596;DHT22;7898;48.658;9.068;2024-02-15T10:04:37;20.40;99.90
15596;DHT22;7898;48.658;9.068;2024-02-15T10:07:04;20.40;99.90
15596;DHT22;7898;48.658;9.068;2024-02-15T10:09:31;20.60;99.90
15596;DHT22;7898;48.658;9.068;2024-02-15T10:12:00;20.60;99.90
15596;DHT22;7898;48.658;9.068;2024-02-15T10:14:29;20.60;99.90
15596;DHT22;7898;48.658;9.068;2024-02-15T10:16:57;20.70;99.90
15596;DHT22;7898;48.658;9.068;2024-02-15T10:19:31;20.50;99.90
15596;DHT22;7898;48.658;9.068;2024-02-15T10:22:06;19.90;99.90
15596;DHT22;7898;48.658;9.068;2024-02-15T10:24:34;19.60;99.90
15596;DHT22;7898;48.658;9.068;2024-02-15T10:27:02;19.50;99.90
15596;DHT22;7898;48.658;9.068;2024-02-15T10:29:32;19.50;99.90
15596;DHT22;7898;48.658;9.068;2024-02-15T10:32:02;19.30;99.90
15596;DHT22;7898;48.658;9.068;2024-02-15T10:34:29;19.20;99.90
15596;DHT22;7898;48.658;9.068;2024-02-15T10:37:10;19.20;99.90
15596;DHT22;7898;48.658;9.068;2024-02-15T10:39:37;19.00;99.90
15596;DHT22;7898;48.658;9.068;2024-02-15T10:42:07;18.60;99.90
15596;DHT22;7898;48.658;9.068;2024-02-15T10:44:36;18.10;99.90
15596;DHT22;7898;48.658;9.068;2024-02-15T10:47:04;18.00;99.90
15596;DHT22;7898;48.658;9.068;2024-02-15T10:49:34;18.10;99.90
15596;DHT22;7898;48.658;9.068;2024-02-15T10:52:01;17.90;99.90
15596;DHT22;7898;48.658;9.068;2024-02-15T10:54:41;17.30;99.90
15596;DHT22;7898;48.658;9.068;2024-02-15T10:57:11;17.20;99.90
15596;DHT22;7898;48.658;9.068;2024-02-15T10:59:47;17.50;99.90
15596;DHT22;7898;48.658;9.068;2024-02-15T11:02:34;17.60;99.90
15596;DHT22;7898;48.658;9.068;2024-02-15T11:05:06;17.50;99.90
15596;DHT22;7898;48.658;9.068;2024-02-15T11:07:35;17.80;99.90
15596;DHT22;7898;48.658;9.068;2024-02-15T11:10:04;18.20;99.90
15596;DHT22;7898;48.658;9.068;2024-02-15T11:12:37;18.50;99.90
15596;DHT22;7898;48.658;9.068;2024-02-15T11:15:05;18.70;99.90
15596;DHT22;7898;48.658;9.068;2024-02-15T11:17:45;18.70;99.90
15596;DHT22;7898;48.658;9.068;2024-02-15T11:23:25;18.70;99.90
15596;DHT22;7898;48.658;9.068;2024-02-15T11:25:56;18.80;99.90
15596;DHT22;7898;48.658;9.068;2024-02-15T11:28:47;18.80;99.90
15596;DHT22;7898;48.658;9.068;2024-02-15T11:34:44;18.80;99.90
15596;DHT22;7898;48.658;9.068;2024-02-15T11:40:19;18.60;99.90
15596;DHT22;7898;48.658;9.068;2024-02-15T11:42:48;18.50;99.90
15596;DHT22;7898;48.658;9.068;2024-02-15T11:45:17;18.40;99.90
15596;DHT22;7898;48.658;9.068;2024-02-15T11:47:49;18.40;99.90
15596;DHT22;7898;48.658;9.068;2024-02-15T11:50:17;18.20;99.90
15596;DHT22;7898;48.658;9.068;2024-02-15T11:52:46;18.10;99.90
15596;DHT22;7898;48.658;9.068;2024-02-15T11:55:17;18.10;99.90
15596;DHT22;7898;48.658;9.068;2024-02-15T11:57:54;18.30;99.90
15596;DHT22;7898;48.658;9.068;2024-02-15T12:00:29;18.20;99.90
15596;DHT22;7898;48.658;9.068;2024-02-15T12:03:28;18.30;99.90
15596;DHT22;7898;48.658;9.068;2024-02-15T12:06:17;18.30;99.90
15596;DHT22;7898;48.658;9.068;2024-02-15T12:09:02;18.50;99.90
15596;DHT22;7898;48.658;9.068;2024-02-15T12:11:46;18.50;99.90
15596;DHT22;7898;48.658;9.068;2024-02-15T12:14:30;18.50;99.90
15596;DHT22;7898;48.658;9.068;2024-02-15T12:17:16;18.70;99.90
15596;DHT22;7898;48.658;9.068;2024-02-15T12:20:01;18.60;99.90
15596;DHT22;7898;48.658;9.068;2024-02-15T12:22:35;18.50;99.90
15596;DHT22;7898;48.658;9.068;2024-02-15T12:25:07;18.30;99.90
15596;DHT22;7898;48.658;9.068;2024-02-15T12:27:37;18.40;99.90
15596;DHT22;7898;48.658;9.068;2024-02-15T12:30:05;18.50;99.90
15596;DHT22;7898;48.658;9.068;2024-02-15T12:32:35;18.60;99.90
15596;DHT22;7898;48.658;9.068;2024-02-15T12:35:12;18.60;99.90
15596;DHT22;7898;48.658;9.068;2024-02-15T12:37:42;18.50;99.90
15596;DHT22;7898;48.658;9.068;2024-02-15T12:40:13;18.50;99.90
15596;DHT22;7898;48.658;9.068;2024-02-15T12:42:42;18.50;99.90
15596;DHT22;7898;48.658;9.068;2024-02-15T12:45:15;18.50;99.90
15596;DHT22;7898;48.658;9.068;2024-02-15T12:47:47;18.20;99.90
15596;DHT22;7898;48.658;9.068;2024-02-15T12:50:15;18.20;99.90
15596;DHT22;7898;48.658;9.068;2024-02-15T12:52:45;18.30;99.90
15596;DHT22;7898;48.658;9.068;2024-02-15T12:55:14;18.20;99.90
15596;DHT22;7898;48.658;9.068;2024-02-15T12:57:43;18.10;99.90
15596;DHT22;7898;48.658;9.068;2024-02-15T13:00:12;18.30;99.90
15596;DHT22;7898;48.658;9.068;2024-02-15T13:02:44;18.40;99.90
15596;DHT22;7898;48.658;9.068;2024-02-15T13:05:13;18.30;99.90
15596;DHT22;7898;48.658;9.068;2024-02-15T13:07:40;18.00;99.90
15596;DHT22;7898;48.658;9.068;2024-02-15T13:10:08;17.70;99.90
15596;DHT22;7898;48.658;9.068;2024-02-15T13:12:36;17.60;99.90
15596;DHT22;7898;48.658;9.068;2024-02-15T13:15:04;17.50;99.90
15596;DHT22;7898;48.658;9.068;2024-02-15T13:17:32;17.50;99.90
15596;DHT22;7898;48.658;9.068;2024-02-15T13:20:00;17.50;99.90
15596;DHT22;7898;48.658;9.068;2024-02-15T13:22:33;17.60;99.90
15596;DHT22;7898;48.658;9.068;2024-02-15T13:25:02;17.70;99.90
15596;DHT22;7898;48.658;9.068;2024-02-15T13:27:29;17.70;99.90
15596;DHT22;7898;48.658;9.068;2024-02-15T13:29:57;17.70;99.90
15596;DHT22;7898;48.658;9.068;2024-02-15T13:32:24;17.80;99.90
15596;DHT22;7898;48.658;9.068;2024-02-15T13:34:51;17.90;99.90
15596;DHT22;7898;48.658;9.068;2024-02-15T13:37:21;17.90;99.90
15596;DHT22;7898;48.658;9.068;2024-02-15T13:39:50;18.00;99.90
15596;DHT22;7898;48.658;9.068;2024-02-15T13:42:17;17.80;99.90
15596;DHT22;7898;48.658;9.068;2024-02-15T13:44:44;17.80;99.90
15596;DHT22;7898;48.658;9.068;2024-02-15T13:47:12;17.80;99.90
15596;DHT22;7898;48.658;9.068;2024-02-15T13:49:41;17.80;99.90
15596;DHT22;7898;48.658;9.068;2024-02-15T13:52:08;17.80;99.90
15596;DHT22;7898;48.658;9.068;2024-02-15T13:54:36;17.80;99.90
15596;DHT22;7898;48.658;9.068;2024-02-15T13:57:05;17.80;99.90
15596;DHT22;7898;48.658;9.068;2024-02-15T13:59:33;17.90;99.90
15596;DHT22;7898;48.658;9.068;2024-02-15T14:02:00;17.90;99.90
15596;DHT22;7898;48.658;9.068;2024-02-15T14:04:29;17.90;99.90
15596;DHT22;7898;48.658;9.068;2024-02-15T14:06:57;17.80;99.90
15596;DHT22;7898;48.658;9.068;2024-02-15T14:09:25;17.70;99.90
15596;DHT22;7898;48.658;9.068;2024-02-15T14:11:53;17.60;99.90
15596;DHT22;7898;48.658;9.068;2024-02-15T14:14:21;17.60;99.90
15596;DHT22;7898;48.658;9.068;2024-02-15T14:16:48;17.50;99.90
15596;DHT22;7898;48.658;9.068;2024-02-15T14:19:15;17.40;99.90
15596;DHT22;7898;48.658;9.068;2024-02-15T14:21:43;17.30;99.90
15596;DHT22;7898;48.658;9.068;2024-02-15T14:24:11;17.40;99.90
15596;DHT22;7898;48.658;9.068;2024-02-15T14:26:38;17.60;99.90
15596;DHT22;7898;48.658;9.068;2024-02-15T14:29:06;17.70;99.90
15596;DHT22;7898;48.658;9.068;2024-02-15T14:31:36;17.80;99.90
15596;DHT22;7898;48.658;9.068;2024-02-15T14:34:21;17.90;99.90
15596;DHT22;7898;48.658;9.068;2024-02-15T14:36:50;18.00;99.90
15596;DHT22;7898;48.658;9.068;2024-02-15T14:39:17;18.10;99.90
15596;DHT22;7898;48.658;9.068;2024-02-15T14:41:45;18.00;99.90
15596;DHT22;7898;48.658;9.068;2024-02-15T14:44:12;18.60;99.90
15596;DHT22;7898;48.658;9.068;2024-02-15T14:46:40;18.70;99.90
15596;DHT22;7898;48.658;9.068;2024-02-15T14:49:07;18.40;99.90
15596;DHT22;7898;48.658;9.068;2024-02-15T14:51:34;18.40;99.90
15596;DHT22;7898;48.658;9.068;2024-02-15T14:54:04;18.50;99.90
15596;DHT22;7898;48.658;9.068;2024-02-15T14:56:31;18.30;99.90
15596;DHT22;7898;48.658;9.068;2024-02-15T14:58:59;18.20;99.90
15596;DHT22;7898;48.658;9.068;2024-02-15T15:01:26;18.20;99.90
15596;DHT22;7898;48.658;9.068;2024-02-15T15:03:56;18.00;99.90
15596;DHT22;7898;48.658;9.068;2024-02-15T15:06:24;17.80;99.90
15596;DHT22;7898;48.658;9.068;2024-02-15T15:09:09;17.60;99.90
15596;DHT22;7898;48.658;9.068;2024-02-15T15:11:54;17.50;99.90
15596;DHT22;7898;48.658;9.068;2024-02-15T15:14:38;17.60;99.90
15596;DHT22;7898;48.658;9.068;2024-02-15T15:17:06;17.40;99.90
15596;DHT22;7898;48.658;9.068;2024-02-15T15:19:34;17.40;99.90
15596;DHT22;7898;48.658;9.068;2024-02-15T15:22:03;17.30;99.90
15596;DHT22;7898;48.658;9.068;2024-02-15T15:24:31;17.20;99.90
15596;DHT22;7898;48.658;9.068;2024-02-15T15:26:58;17.10;99.90
15596;DHT22;7898;48.658;9.068;2024-02-15T15:29:26;17.10;99.90
15596;DHT22;7898;48.658;9.068;2024-02-15T15:31:53;17.00;99.90
15596;DHT22;7898;48.658;9.068;2024-02-15T15:34:20;16.90;99.90
15596;DHT22;7898;48.658;9.068;2024-02-15T15:36:48;16.90;99.90
15596;DHT22;7898;48.658;9.068;2024-02-15T15:39:15;16.80;99.90
15596;DHT22;7898;48.658;9.068;2024-02-15T15:41:44;16.70;99.90
15596;DHT22;7898;48.658;9.068;2024-02-15T15:44:11;16.60;99.90
15596;DHT22;7898;48.658;9.068;2024-02-15T15:46:38;16.50;99.90
15596;DHT22;7898;48.658;9.068;2024-02-15T15:49:05;16.30;99.90
15596;DHT22;7898;48.658;9.068;2024-02-15T15:51:32;16.20;99.90
15596;DHT22;7898;48.658;9.068;2024-02-15T15:54:00;16.00;99.90
15596;DHT22;7898;48.658;9.068;2024-02-15T15:56:27;15.90;99.90
15596;DHT22;7898;48.658;9.068;2024-02-15T15:58:54;15.80;99.90
15596;DHT22;7898;48.658;9.068;2024-02-15T16:01:23;15.70;99.90
15596;DHT22;7898;48.658;9.068;2024-02-15T16:03:50;15.50;99.90
15596;DHT22;7898;48.658;9.068;2024-02-15T16:06:17;15.30;99.90
15596;DHT22;7898;48.658;9.068;2024-02-15T16:08:45;15.20;99.90
15596;DHT22;7898;48.658;9.068;2024-02-15T16:11:14;15.10;99.90
15596;DHT22;7898;48.658;9.068;2024-02-15T16:13:42;15.00;99.90